Hauptseite
METAR-TAF:

METAR-TAF

Flughäfen :

MoD Boscombe Down

Boscombe Down, England

Breite: 51-10N, Länge: 001-45W, Höhe: 124 m

Beobachtung

Neuester Wetterbericht von vor 43 Minuten, um 04:50 UTC
Wind 4 kt aus Nordwest
Temperatur 1°C
Luftfeuchtigkeit 93%
Luftdruck 1008 hPa
Sichtweite: 4500 m

METAR: EGDM 170450Z AUTO 32004KT 4500 FEW021/// BKN029/// 01/00 Q1008

Zeit: 05:33 (05:33 UTC)

Prognose

Neuester Wetterbericht von vor 15 Stunden und 53 Minuten, um 13:40 UTC
Gültige Prognose vom 16 um 15 UTC bis 16 um 18 UTC
Wind 5 kt aus Nord
Sichtweite 10 km oder mehr
Leicht bewölkt in der Höhe von 2000 ft
Durchbrochene Bewölkung in der Höhe von 3500 ft

TAF: EGDM 161340Z 1615/1618 01005KT 9999 FEW020 BKN035

Wetterbeobachtungen und Prognosen von mehr als 4000 Flughäfen (METAR und TAF Bericht).

Die verfügbaren Stationen werden durch gelbe und rote Markierungen auf der Karte dargestellt.

Führen Sie die Maus auf sie, um den Namen der Station zu sehen.

Darauf klicken, um die Beobachtung von Wetterbeobachtungen und Prognosen zu sehen.

Um die Karte zu ändern : klicken Sie auf den grünen Tasten mit einem schwarzen Kreuz Zum Vergrößern, auf den grünen Button mit einem Gedankenstrich zu verkleinern, oder auf die grünen Pfeile für benachbarte Karten.


METAR-TAF: